^^
Your Local Weather - Clay, NY Station Historical Data
Daily Summary for January 17, 2018 Units:  English    Metric   Both
« Previous Day
Next Day »
Daily Weekly Monthly Yearly Custom
  High: Low: Average:
Temperature: 23.7 °F 1.6 °F 15.9 °F
Dew Point: 22.0 °F -1.6 °F 13 °F
Humidity: 93% 84% 88%
Wind Speed: 4.0mph 0.0mph 1.6mph
Wind Gust: 9.0mph - -
Wind- - WSW
Pressure: 30.39 in 30.13 in -
Precipitation: 0.00 in    
Historical Graphs
 
 
Tabular Data for January 17, 2018
Time Temperature Dew Point Pressure Wind Wind Speed Wind Gust Humidity Rainfall Rate (Hourly) solar
00:00 21.4 °F 19.7 °F 30.34 in Calm     93% 0.00 in 0 W/m2
00:05 21.4 °F 19.7 °F 30.33 in Calm     93% 0.00 in 0 W/m2
00:18 21.3 °F 19.6 °F 30.33 in Calm     93% 0.00 in 0 W/m2
00:24 21.2 °F 19.5 °F 30.33 in Calm     93% 0.00 in 0 W/m2
00:32 21.3 °F 19.6 °F 30.33 in Calm     93% 0.00 in 0 W/m2
00:38 21.3 °F 19.6 °F 30.33 in Calm     93% 0.00 in 0 W/m2
00:44 21.2 °F 19.5 °F 30.33 in Calm     93% 0.00 in 0 W/m2
00:49 21.2 °F 19.5 °F 30.33 in Calm     93% 0.00 in 0 W/m2
00:56 21.2 °F 19.5 °F 30.33 in Calm     93% 0.00 in 0 W/m2
01:02 21.1 °F 19.4 °F 30.32 in Calm     93% 0.00 in 0 W/m2
01:08 21.1 °F 19.4 °F 30.32 in Calm     93% 0.00 in 0 W/m2
01:14 21.1 °F 19.4 °F 30.33 in Calm     93% 0.00 in 0 W/m2
01:19 21.2 °F 19.5 °F 30.32 in Calm     93% 0.00 in 0 W/m2
01:26 21.5 °F 19.5 °F 30.32 in Calm     92% 0.00 in 0 W/m2
01:34 21.8 °F 20.1 °F 30.32 in Calm     93% 0.00 in 0 W/m2
01:40 22.0 °F 20.3 °F 30.32 in Calm     93% 0.00 in 0 W/m2
01:46 22.0 °F 20.3 °F 30.32 in Calm     93% 0.00 in 0 W/m2
01:52 22.0 °F 20.3 °F 30.32 in Calm     93% 0.00 in 0 W/m2
01:58 21.9 °F 20.2 °F 30.32 in Calm     93% 0.00 in 0 W/m2
02:03 21.9 °F 20.2 °F 30.32 in Calm     93% 0.00 in 0 W/m2
02:10 21.9 °F 20.2 °F 30.32 in Calm     93% 0.00 in 0 W/m2
02:16 22.0 °F 20.3 °F 30.32 in Calm     93% 0.00 in 0 W/m2
02:22 22.1 °F 20.4 °F 30.32 in Calm     93% 0.00 in 0 W/m2
02:28 22.2 °F 20.5 °F 30.32 in Calm     93% 0.00 in 0 W/m2
02:34 22.3 °F 20.6 °F 30.32 in Calm     93% 0.00 in 0 W/m2
02:40 22.3 °F 20.6 °F 30.32 in Calm     93% 0.00 in 0 W/m2
02:45 22.7 °F 21.0 °F 30.33 in Calm   2.0 mph 93% 0.00 in 0 W/m2
02:52 23.1 °F 21.4 °F 30.33 in WSW 1.0 mph 2.0 mph 93% 0.00 in 0 W/m2
03:00 23.4 °F 21.7 °F 30.33 in WSW 1.0 mph 1.0 mph 93% 0.00 in 0 W/m2
03:05 23.5 °F 21.8 °F 30.33 in WSW 1.0 mph 1.0 mph 93% 0.00 in 0 W/m2
03:12 23.7 °F 22.0 °F 30.33 in Calm     93% 0.00 in 0 W/m2
03:25 23.7 °F 22.0 °F 30.34 in WNW 2.0 mph 3.0 mph 93% 0.00 in 0 W/m2
03:32 23.6 °F 21.9 °F 30.34 in WNW 2.0 mph 2.0 mph 93% 0.00 in 0 W/m2
03:38 23.2 °F 21.5 °F 30.34 in WNW 3.0 mph 4.0 mph 93% 0.00 in 0 W/m2
03:44 23.0 °F 21.3 °F 30.34 in WNW 2.0 mph 3.0 mph 93% 0.00 in 0 W/m2
03:49 22.8 °F 21.1 °F 30.34 in WNW 2.0 mph 3.0 mph 93% 0.00 in 0 W/m2
03:58 22.4 °F 20.4 °F 30.34 in NW 3.0 mph 3.0 mph 92% 0.00 in 0 W/m2
04:05 22.2 °F 20.2 °F 30.34 in WNW 2.0 mph 3.0 mph 92% 0.00 in 0 W/m2
04:12 21.9 °F 19.9 °F 30.34 in WNW 2.0 mph 3.0 mph 92% 0.00 in 0 W/m2
04:18 21.7 °F 19.7 °F 30.34 in WNW 3.0 mph 5.0 mph 92% 0.00 in 0 W/m2
04:24 21.4 °F 19.4 °F 30.34 in WNW 3.0 mph 5.0 mph 92% 0.00 in 0 W/m2
04:29 21.2 °F 19.2 °F 30.34 in West 3.0 mph 3.0 mph 92% 0.00 in 0 W/m2
04:36 20.9 °F 18.9 °F 30.34 in West 2.0 mph 4.0 mph 92% 0.00 in 0 W/m2
04:42 20.4 °F 18.4 °F 30.34 in WNW 3.0 mph 3.0 mph 92% 0.00 in 0 W/m2
04:48 20.0 °F 17.8 °F 30.35 in WNW 3.0 mph 3.0 mph 91% 0.00 in 0 W/m2
04:53 19.7 °F 17.5 °F 30.35 in West 3.0 mph 3.0 mph 91% 0.00 in 0 W/m2
04:59 19.4 °F 17.2 °F 30.35 in WSW 3.0 mph 3.0 mph 91% 0.00 in 0 W/m2
05:08 19.0 °F 16.8 °F 30.35 in WNW 2.0 mph 3.0 mph 91% 0.00 in 0 W/m2
05:16 18.6 °F 16.4 °F 30.36 in WNW 3.0 mph 4.0 mph 91% 0.00 in 0 W/m2
05:22 18.4 °F 16.2 °F 30.36 in West 3.0 mph 3.0 mph 91% 0.00 in 0 W/m2
05:28 18.2 °F 16.0 °F 30.36 in WNW 2.0 mph 4.0 mph 91% 0.00 in 0 W/m2
05:33 18.1 °F 15.7 °F 30.36 in NW 2.0 mph 3.0 mph 90% 0.00 in 0 W/m2
05:46 17.9 °F 15.5 °F 30.37 in WNW 2.0 mph 3.0 mph 90% 0.00 in 0 W/m2
05:52 17.7 °F 15.3 °F 30.37 in West 2.0 mph 4.0 mph 90% 0.00 in 0 W/m2
05:58 17.5 °F 15.1 °F 30.38 in West 3.0 mph 5.0 mph 90% 0.00 in 0 W/m2
06:08 17.2 °F 14.8 °F 30.38 in WNW 3.0 mph 4.0 mph 90% 0.00 in 0 W/m2
06:14 17.1 °F 14.7 °F 30.38 in WSW 2.0 mph 5.0 mph 90% 0.00 in 0 W/m2
06:20 17.0 °F 14.6 °F 30.38 in West 2.0 mph 2.0 mph 90% 0.00 in 0 W/m2
06:25 16.9 °F 14.5 °F 30.38 in WSW 2.0 mph 5.0 mph 90% 0.00 in 0 W/m2
06:32 16.8 °F 14.4 °F 30.38 in West 2.0 mph 2.0 mph 90% 0.00 in 0 W/m2
06:46 16.6 °F 14.2 °F 30.38 in WSW 2.0 mph 3.0 mph 90% 0.00 in 0 W/m2
06:52 16.4 °F 14.0 °F 30.38 in WSW 2.0 mph 2.0 mph 90% 0.00 in 0 W/m2
06:58 16.4 °F 14.0 °F 30.38 in West 2.0 mph 5.0 mph 90% 0.00 in 0 W/m2
07:04 16.3 °F 13.6 °F 30.38 in WSW 2.0 mph 2.0 mph 89% 0.00 in 0 W/m2
07:10 16.2 °F 13.8 °F 30.38 in WSW 2.0 mph 2.0 mph 90% 0.00 in 0 W/m2
07:16 16.1 °F 13.4 °F 30.38 in WNW 2.0 mph 3.0 mph 89% 0.00 in 0 W/m2
07:22 16.0 °F 13.3 °F 30.38 in NW 2.0 mph 6.0 mph 89% 0.00 in 0 W/m2
07:28 15.9 °F 13.2 °F 30.38 in West 2.0 mph 6.0 mph 89% 0.00 in 0 W/m2
07:34 15.9 °F 13.2 °F 30.38 in WNW 2.0 mph 2.0 mph 89% 0.00 in 0 W/m2
07:40 15.9 °F 13.2 °F 30.38 in WNW 2.0 mph 2.0 mph 89% 0.00 in 0 W/m2
07:50 15.8 °F 13.1 °F 30.38 in WNW 2.0 mph 2.0 mph 89% 0.00 in 0 W/m2
07:56 15.8 °F 13.4 °F 30.38 in WSW 2.0 mph 2.0 mph 90% 0.00 in 0 W/m2
08:02 15.7 °F 13.3 °F 30.38 in West 2.0 mph 2.0 mph 90% 0.00 in 5 W/m2
08:08 15.7 °F 13.3 °F 30.38 in WSW 2.0 mph 3.0 mph 90% 0.00 in 7 W/m2
08:16 15.6 °F 13.2 °F 30.38 in WSW 1.0 mph 3.0 mph 90% 0.00 in 9 W/m2
08:22 15.6 °F 13.2 °F 30.38 in SW 2.0 mph 2.0 mph 90% 0.00 in 11 W/m2
08:29 15.6 °F 13.2 °F 30.39 in WSW 2.0 mph 2.0 mph 90% 0.00 in 14 W/m2
08:36 15.5 °F 12.8 °F 30.39 in WSW 3.0 mph 6.0 mph 89% 0.00 in 18 W/m2
08:42 15.5 °F 12.8 °F 30.39 in SW 3.0 mph 3.0 mph 89% 0.00 in 19 W/m2
08:48 15.5 °F 12.8 °F 30.39 in WSW 2.0 mph 3.0 mph 89% 0.00 in 21 W/m2
09:02 15.6 °F 12.9 °F 30.38 in WSW 1.0 mph 2.0 mph 89% 0.00 in 30 W/m2
09:08 15.7 °F 13.3 °F 30.38 in WSW 2.0 mph 2.0 mph 90% 0.00 in 32 W/m2
09:13 15.7 °F 13.0 °F 30.38 in WSW 2.0 mph 6.0 mph 89% 0.00 in 37 W/m2
09:20 15.7 °F 13.0 °F 30.38 in WSW 2.0 mph 3.0 mph 89% 0.00 in 49 W/m2
09:25 15.8 °F 13.1 °F 30.38 in WSW 1.0 mph 3.0 mph 89% 0.00 in 62 W/m2
09:32 15.7 °F 13.0 °F 30.38 in SW 2.0 mph 3.0 mph 89% 0.00 in 63 W/m2
09:38 15.8 °F 13.1 °F 30.38 in WNW 3.0 mph 3.0 mph 89% 0.00 in 62 W/m2
09:44 15.8 °F 13.1 °F 30.38 in SW 2.0 mph 4.0 mph 89% 0.00 in 56 W/m2
09:50 15.8 °F 13.1 °F 30.38 in WSW 2.0 mph 4.0 mph 89% 0.00 in 62 W/m2
10:02 15.9 °F 13.2 °F 30.38 in West 2.0 mph 3.0 mph 89% 0.00 in 67 W/m2
10:08 15.9 °F 13.2 °F 30.39 in WNW 2.0 mph 5.0 mph 89% 0.00 in 65 W/m2
10:14 15.9 °F 13.2 °F 30.39 in WSW 2.0 mph 3.0 mph 89% 0.00 in 60 W/m2
10:20 15.9 °F 13.2 °F 30.39 in West 2.0 mph 2.0 mph 89% 0.00 in 69 W/m2
10:28 15.9 °F 13.0 °F 30.39 in West 3.0 mph 5.0 mph 88% 0.00 in 83 W/m2
10:33 15.8 °F 12.9 °F 30.39 in WSW 3.0 mph 6.0 mph 88% 0.00 in 90 W/m2
10:45 16.3 °F 13.4 °F 30.39 in West 2.0 mph 5.0 mph 88% 0.00 in 88 W/m2
10:52 16.3 °F 13.4 °F 30.38 in WNW 3.0 mph 3.0 mph 88% 0.00 in 84 W/m2
10:58 16.3 °F 13.4 °F 30.38 in West 3.0 mph 3.0 mph 88% 0.00 in 81 W/m2
11:04 16.4 °F 13.5 °F 30.38 in SW 2.0 mph 4.0 mph 88% 0.00 in 81 W/m2
11:09 16.3 °F 13.1 °F 30.38 in WSW 3.0 mph 3.0 mph 87% 0.00 in 79 W/m2
11:15 16.2 °F 13.0 °F 30.38 in WSW 4.0 mph 4.0 mph 87% 0.00 in 83 W/m2
11:22 16.3 °F 13.1 °F 30.38 in WSW 2.0 mph 3.0 mph 87% 0.00 in 84 W/m2
11:28 16.5 °F 13.3 °F 30.37 in WNW 2.0 mph 5.0 mph 87% 0.00 in 86 W/m2
11:34 16.5 °F 13.3 °F 30.36 in West 3.0 mph 6.0 mph 87% 0.00 in 91 W/m2
11:39 16.5 °F 13.3 °F 30.36 in West 3.0 mph 3.0 mph 87% 0.00 in 109 W/m2
11:46 16.7 °F 13.5 °F 30.36 in WSW 3.0 mph 3.0 mph 87% 0.00 in 125 W/m2
11:52 17.0 °F 13.8 °F 30.35 in WSW 2.0 mph 2.0 mph 87% 0.00 in 151 W/m2
12:02 17.2 °F 14.0 °F 30.35 in WSW 3.0 mph 4.0 mph 87% 0.00 in 165 W/m2
12:08 17.1 °F 13.9 °F 30.34 in West 3.0 mph 4.0 mph 87% 0.00 in 176 W/m2
12:14 17.1 °F 13.6 °F 30.34 in West 3.0 mph 5.0 mph 86% 0.00 in 169 W/m2
12:19 17.0 °F 13.5 °F 30.33 in West 4.0 mph 4.0 mph 86% 0.00 in 255 W/m2
12:32 17.1 °F 13.6 °F 30.33 in West 4.0 mph 4.0 mph 86% 0.00 in 174 W/m2
12:40 17.4 °F 13.9 °F 30.33 in WNW 3.0 mph 3.0 mph 86% 0.00 in 188 W/m2
12:52 17.9 °F 14.4 °F 30.32 in SW 3.0 mph 3.0 mph 86% 0.00 in 612 W/m2
12:58 18.6 °F 15.4 °F 30.32 in WSW 3.0 mph 3.0 mph 87% 0.00 in 605 W/m2
13:04 18.4 °F 14.9 °F 30.32 in West 3.0 mph 6.0 mph 86% 0.00 in 566 W/m2
13:09 18.2 °F 14.7 °F 30.32 in WSW 3.0 mph 3.0 mph 86% 0.00 in 417 W/m2
13:18 18.2 °F 14.7 °F 30.32 in WSW 3.0 mph 6.0 mph 86% 0.00 in 492 W/m2
13:24 18.4 °F 14.9 °F 30.31 in West 3.0 mph 4.0 mph 86% 0.00 in 642 W/m2
13:30 18.5 °F 15.0 °F 30.31 in West 4.0 mph 4.0 mph 86% 0.00 in 510 W/m2
13:40 18.3 °F 14.8 °F 30.31 in West 3.0 mph 3.0 mph 86% 0.00 in 207 W/m2
13:48 18.1 °F 14.6 °F 30.30 in WSW 3.0 mph 3.0 mph 86% 0.00 in 185 W/m2
13:54 18.6 °F 15.1 °F 30.30 in SSW 2.0 mph 6.0 mph 86% 0.00 in 487 W/m2
14:00 19.1 °F 15.9 °F 30.30 in West 2.0 mph 2.0 mph 87% 0.00 in 513 W/m2
14:06 19.3 °F 15.8 °F 30.30 in WSW 3.0 mph 4.0 mph 86% 0.00 in 510 W/m2
14:13 19.3 °F 15.8 °F 30.30 in South 2.0 mph 5.0 mph 86% 0.00 in 550 W/m2
14:20 19.6 °F 16.4 °F 30.30 in SSW 3.0 mph 3.0 mph 87% 0.00 in 494 W/m2
14:26 19.5 °F 16.0 °F 30.29 in SW 4.0 mph 8.0 mph 86% 0.00 in 394 W/m2
14:32 19.2 °F 15.7 °F 30.29 in West 4.0 mph 4.0 mph 86% 0.00 in 374 W/m2
14:38 19.1 °F 15.6 °F 30.29 in SW 4.0 mph 4.0 mph 86% 0.00 in 352 W/m2
14:44 19.2 °F 15.7 °F 30.28 in WSW 3.0 mph 6.0 mph 86% 0.00 in 336 W/m2
14:50 19.6 °F 16.1 °F 30.28 in West 2.0 mph 2.0 mph 86% 0.00 in 264 W/m2
14:55 19.9 °F 16.4 °F 30.28 in West 2.0 mph 4.0 mph 86% 0.00 in 297 W/m2
15:02 19.6 °F 15.8 °F 30.28 in WSW 3.0 mph 4.0 mph 85% 0.00 in 278 W/m2
15:09 19.5 °F 15.7 °F 30.28 in SW 3.0 mph 3.0 mph 85% 0.00 in 248 W/m2
15:16 19.3 °F 15.5 °F 30.28 in WSW 4.0 mph 5.0 mph 85% 0.00 in 149 W/m2
15:22 19.0 °F 15.2 °F 30.28 in West 4.0 mph 6.0 mph 85% 0.00 in 158 W/m2
15:30 19.1 °F 15.3 °F 30.28 in WSW 3.0 mph 4.0 mph 85% 0.00 in 236 W/m2
15:40 19.2 °F 15.4 °F 30.28 in SSW 4.0 mph 4.0 mph 85% 0.00 in 193 W/m2
15:46 19.3 °F 15.5 °F 30.27 in WSW 3.0 mph 4.0 mph 85% 0.00 in 167 W/m2
15:54 19.3 °F 15.5 °F 30.27 in SSW 3.0 mph 3.0 mph 85% 0.00 in 149 W/m2
16:04 19.1 °F 15.3 °F 30.27 in WSW 3.0 mph 5.0 mph 85% 0.00 in 109 W/m2
16:16 19.0 °F 15.2 °F 30.26 in WSW 2.0 mph 3.0 mph 85% 0.00 in 32 W/m2
16:22 18.6 °F 14.8 °F 30.27 in WSW 2.0 mph 2.0 mph 85% 0.00 in 26 W/m2
16:25 18.5 °F 14.7 °F 30.26 in WSW 2.0 mph 5.0 mph 85% 0.00 in 25 W/m2
16:28 18.4 °F 14.6 °F 30.26 in WSW 2.0 mph 5.0 mph 85% 0.00 in 23 W/m2
16:34 18.2 °F 14.4 °F 30.26 in WSW 1.0 mph 4.0 mph 85% 0.00 in 19 W/m2
16:39 18.1 °F 14.4 °F 30.26 in WSW 1.0 mph 1.0 mph 85% 0.00 in 16 W/m2
16:46 17.9 °F 14.2 °F 30.26 in WSW 1.0 mph 3.0 mph 85% 0.00 in 14 W/m2
16:52 17.7 °F 14.0 °F 30.26 in WSW 1.0 mph 1.0 mph 85% 0.00 in 11 W/m2
16:56 17.6 °F 13.9 °F 30.25 in SW 1.0 mph 5.0 mph 85% 0.00 in 7 W/m2
16:58 17.5 °F 13.8 °F 30.26 in West 1.0 mph 5.0 mph 85% 0.00 in 5 W/m2
17:02 17.5 °F 13.8 °F 30.26 in SW 2.0 mph 4.0 mph 85% 0.00 in 0 W/m2
17:06 17.4 °F 13.7 °F 30.25 in WSW 2.0 mph 4.0 mph 85% 0.00 in 0 W/m2
17:12 17.4 °F 13.7 °F 30.25 in WSW 3.0 mph 4.0 mph 85% 0.00 in 0 W/m2
17:18 17.3 °F 13.6 °F 30.25 in West 3.0 mph 5.0 mph 85% 0.00 in 0 W/m2
17:26 17.1 °F 13.4 °F 30.25 in WSW 3.0 mph 4.0 mph 85% 0.00 in 0 W/m2
17:32 17.0 °F 13.3 °F 30.25 in WSW 2.0 mph 2.0 mph 85% 0.00 in 0 W/m2
17:38 16.7 °F 13.0 °F 30.25 in SW 1.0 mph 3.0 mph 85% 0.00 in 0 W/m2
17:43 16.5 °F 12.8 °F 30.25 in SW 2.0 mph 9.0 mph 85% 0.00 in 0 W/m2
17:49 16.3 °F 12.6 °F 30.25 in West 3.0 mph 3.0 mph 85% 0.00 in 0 W/m2
17:56 16.2 °F 12.5 °F 30.26 in WSW 3.0 mph 4.0 mph 85% 0.00 in 0 W/m2
18:00 16.1 °F 12.4 °F 30.26 in West 2.0 mph 3.0 mph 85% 0.00 in 0 W/m2
18:06 15.9 °F 11.9 °F 30.26 in WSW 2.0 mph 3.0 mph 84% 0.00 in 0 W/m2
18:12 15.7 °F 11.7 °F 30.25 in WSW 2.0 mph 2.0 mph 84% 0.00 in 0 W/m2
18:18 15.6 °F 11.9 °F 30.25 in West 2.0 mph 3.0 mph 85% 0.00 in 0 W/m2
18:23 15.4 °F 11.7 °F 30.25 in WSW 2.0 mph 3.0 mph 85% 0.00 in 0 W/m2
18:30 15.3 °F 11.3 °F 30.25 in WSW 1.0 mph 1.0 mph 84% 0.00 in 0 W/m2
18:36 15.1 °F 11.4 °F 30.25 in WSW 2.0 mph 3.0 mph 85% 0.00 in 0 W/m2
18:42 15.1 °F 11.4 °F 30.25 in SW 2.0 mph 5.0 mph 85% 0.00 in 0 W/m2
18:48 15.0 °F 11.3 °F 30.24 in SW 2.0 mph 5.0 mph 85% 0.00 in 0 W/m2
18:54 14.9 °F 11.2 °F 30.24 in SW 2.0 mph 6.0 mph 85% 0.00 in 0 W/m2
18:59 14.7 °F 11.0 °F 30.24 in SW 1.0 mph 1.0 mph 85% 0.00 in 0 W/m2
19:05 14.5 °F 10.8 °F 30.24 in SW 1.0 mph 3.0 mph 85% 0.00 in 0 W/m2
19:12 14.5 °F 10.8 °F 30.24 in WSW 1.0 mph 2.0 mph 85% 0.00 in 0 W/m2
19:18 14.3 °F 10.6 °F 30.24 in WSW 1.0 mph 2.0 mph 85% 0.00 in 0 W/m2
19:24 14.2 °F 10.5 °F 30.23 in Calm   2.0 mph 85% 0.00 in 0 W/m2
19:30 13.9 °F 10.2 °F 30.22 in Calm     85% 0.00 in 0 W/m2
19:35 13.6 °F 9.9 °F 30.22 in Calm   2.0 mph 85% 0.00 in 0 W/m2
19:42 13.3 °F 9.6 °F 30.22 in Calm     85% 0.00 in 0 W/m2
19:48 13.1 °F 9.4 °F 30.22 in Calm     85% 0.00 in 0 W/m2
19:54 13.0 °F 9.6 °F 30.22 in Calm     86% 0.00 in 0 W/m2
20:00 12.7 °F 9.3 °F 30.22 in Calm     86% 0.00 in 0 W/m2
20:05 12.3 °F 8.9 °F 30.21 in Calm     86% 0.00 in 0 W/m2
20:12 11.8 °F 8.4 °F 30.21 in Calm     86% 0.00 in 0 W/m2
20:18 11.3 °F 7.9 °F 30.21 in Calm     86% 0.00 in 0 W/m2
20:24 10.8 °F 7.4 °F 30.21 in Calm     86% 0.00 in 0 W/m2
20:30 10.3 °F 6.9 °F 30.20 in Calm     86% 0.00 in 0 W/m2
20:35 10.0 °F 6.6 °F 30.20 in Calm     86% 0.00 in 0 W/m2
20:42 9.7 °F 6.4 °F 30.19 in Calm     86% 0.00 in 0 W/m2
20:48 9.3 °F 6.0 °F 30.19 in Calm     86% 0.00 in 0 W/m2
20:54 8.9 °F 5.6 °F 30.19 in Calm     86% 0.00 in 0 W/m2
20:59 8.5 °F 5.2 °F 30.19 in Calm     86% 0.00 in 0 W/m2
21:05 8.0 °F 4.7 °F 30.18 in Calm     86% 0.00 in 0 W/m2
21:12 7.5 °F 4.2 °F 30.18 in Calm     86% 0.00 in 0 W/m2
21:18 7.1 °F 3.8 °F 30.18 in Calm     86% 0.00 in 0 W/m2
21:24 6.7 °F 3.4 °F 30.18 in Calm     86% 0.00 in 0 W/m2
21:30 6.3 °F 3.0 °F 30.17 in Calm     86% 0.00 in 0 W/m2
21:35 5.9 °F 2.6 °F 30.17 in Calm     86% 0.00 in 0 W/m2
21:42 5.6 °F 2.3 °F 30.17 in Calm     86% 0.00 in 0 W/m2
21:48 5.5 °F 2.5 °F 30.17 in Calm     87% 0.00 in 0 W/m2
21:54 5.3 °F 2.0 °F 30.17 in Calm     86% 0.00 in 0 W/m2
22:00 5.2 °F 2.2 °F 30.16 in Calm     87% 0.00 in 0 W/m2
22:06 5.0 °F 2.0 °F 30.16 in Calm     87% 0.00 in 0 W/m2
22:12 4.7 °F 1.4 °F 30.16 in Calm     86% 0.00 in 0 W/m2
22:18 4.5 °F 1.2 °F 30.16 in Calm     86% 0.00 in 0 W/m2
22:23 4.3 °F 1.0 °F 30.15 in Calm     86% 0.00 in 0 W/m2
22:30 4.2 °F 0.9 °F 30.15 in Calm     86% 0.00 in 0 W/m2
22:36 3.9 °F 0.6 °F 30.15 in Calm     86% 0.00 in 0 W/m2
22:42 3.8 °F 0.5 °F 30.15 in Calm     86% 0.00 in 0 W/m2
22:48 3.6 °F 0.4 °F 30.15 in Calm     86% 0.00 in 0 W/m2
22:53 3.5 °F 0.3 °F 30.15 in Calm     86% 0.00 in 0 W/m2
23:00 3.5 °F 0.3 °F 30.14 in Calm     86% 0.00 in 0 W/m2
23:06 3.4 °F 0.2 °F 30.14 in Calm     86% 0.00 in 0 W/m2
23:12 3.2 °F 0.0 °F 30.14 in Calm     86% 0.00 in 0 W/m2
23:18 3.0 °F -0.2 °F 30.14 in Calm     86% 0.00 in 0 W/m2
23:24 2.8 °F -0.4 °F 30.14 in Calm     86% 0.00 in 0 W/m2
23:29 2.5 °F -0.7 °F 30.14 in Calm     86% 0.00 in 0 W/m2
23:35 2.2 °F -1.0 °F 30.14 in Calm     86% 0.00 in 0 W/m2
23:42 2.0 °F -1.2 °F 30.13 in Calm     86% 0.00 in 0 W/m2
23:48 1.9 °F -1.3 °F 30.13 in Calm     86% 0.00 in 0 W/m2
23:54 1.7 °F -1.5 °F 30.13 in Calm     86% 0.00 in 0 W/m2
23:59 1.6 °F -1.6 °F 30.13 in Calm     86% 0.00 in 0 W/m2
Country Meadow, Clay, NY, USA
Compliments of Weather Underground - 2 mb